< < Back
Terminal Aerodrome Forecast


Current Version              Previous Versions:   1  2  3  4  5  6  7  8  9  

Terminal Aerodrome Forecast

482
FTUS44 KMRX 201127
TAFTYS
TAF
KTYS 201127Z 2012/2112 VRB03KT P6SM FEW040
     FM201400 VRB04KT P6SM SCT040=

Latest METAR

638
SAUS80 KWBC 210000 RRA
MTRTYS
METAR KTYS 202353Z 00000KT 10SM FEW040 26/13 A3001 RMK AO2 SLP152
T02560128 10294 20256 56011


USA.gov is the U.S. government's official web portal to all federal, state and local government web resources and services.